Soleil Laural Canyon Historical Data
 
Daily Summary for April 19, 2018 Units:  English    Metric   Both
Daily Weekly Monthly Yearly Custom
  Current: High: Low: Average:
Temperature: 56.7 °F 69.5 °F 53.7 °F 61 °F
Dew Point: 41.2 °F 58.8 °F 41.0 °F 51.6 °F
Humidity: 56% 85% 56% 72%
Wind Speed: 12.7mph 18.4mph 2.3mph 9.7mph
Wind Gust: 12.7mph 18.4mph - -
WindNW - - West
Pressure: 30.04 in 30.04 in 29.84 in -
Precipitation: 0.00 in      
Historical Graphs
 
 
Tabular Data for April 19, 2018
Time Temperature Dew Point Pressure Wind Wind Speed Wind Gust Humidity Rainfall Rate (Hourly) solar
00:01 69.5 °F 55.9 °F 29.88 in West 5.0 mph 5.0 mph 62% 0.00 in 0.0 W/m2
00:06 69.5 °F 55.9 °F 29.87 in SW 6.9 mph 6.9 mph 62% 0.00 in 0.0 W/m2
00:11 69.4 °F 55.8 °F 29.88 in West 3.5 mph 3.5 mph 62% 0.00 in 0.0 W/m2
00:16 69.3 °F 56.2 °F 29.87 in WSW 6.9 mph 6.9 mph 63% 0.00 in 0.0 W/m2
00:21 69.2 °F 56.1 °F 29.87 in WSW 4.6 mph 4.6 mph 63% 0.00 in 0.0 W/m2
00:26 69.1 °F 56.0 °F 29.87 in WNW 6.9 mph 6.9 mph 63% 0.00 in 0.0 W/m2
00:31 69.0 °F 56.3 °F 29.87 in West 4.6 mph 4.6 mph 64% 0.00 in 0.0 W/m2
00:36 68.9 °F 56.2 °F 29.87 in West 4.6 mph 4.6 mph 64% 0.00 in 0.0 W/m2
00:41 68.8 °F 56.1 °F 29.87 in West 6.9 mph 6.9 mph 64% 0.00 in 0.0 W/m2
00:46 68.7 °F 56.5 °F 29.87 in West 8.1 mph 8.1 mph 65% 0.00 in 0.0 W/m2
00:51 68.6 °F 56.4 °F 29.87 in West 8.1 mph 8.1 mph 65% 0.00 in 0.0 W/m2
00:56 68.5 °F 56.3 °F 29.87 in WSW 9.2 mph 9.2 mph 65% 0.00 in 0.0 W/m2
01:01 68.3 °F 56.5 °F 29.87 in SW 7.0 mph 7.0 mph 66% 0.00 in 0.0 W/m2
01:06 68.1 °F 56.3 °F 29.88 in West 5.8 mph 5.8 mph 66% 0.00 in 0.0 W/m2
01:11 67.9 °F 56.5 °F 29.87 in West 12.7 mph 12.7 mph 67% 0.00 in 0.0 W/m2
01:16 67.8 °F 56.9 °F 29.87 in WSW 9.2 mph 9.2 mph 68% 0.00 in 0.0 W/m2
01:21 67.6 °F 56.7 °F 29.86 in West 11.5 mph 11.5 mph 68% 0.00 in 0.0 W/m2
01:26 67.6 °F 57.5 °F 29.86 in WSW 15.0 mph 15.0 mph 70% 0.00 in 0.0 W/m2
01:31 67.5 °F 57.8 °F 29.86 in West 11.5 mph 11.5 mph 71% 0.00 in 0.0 W/m2
01:36 67.4 °F 57.7 °F 29.86 in SW 13.0 mph 13.0 mph 71% 0.00 in 0.0 W/m2
01:41 67.2 °F 57.9 °F 29.86 in West 11.5 mph 11.5 mph 72% 0.00 in 0.0 W/m2
01:46 67.1 °F 58.2 °F 29.86 in WNW 11.5 mph 11.5 mph 73% 0.00 in 0.0 W/m2
01:51 67.0 °F 58.4 °F 29.86 in NNW 10.4 mph 10.4 mph 74% 0.00 in 0.0 W/m2
01:56 66.9 °F 58.3 °F 29.86 in WSW 13.8 mph 13.8 mph 74% 0.00 in 0.0 W/m2
02:01 66.7 °F 58.5 °F 29.86 in WSW 11.5 mph 11.5 mph 75% 0.00 in 0.0 W/m2
02:06 66.6 °F 58.8 °F 29.86 in West 16.1 mph 16.1 mph 76% 0.00 in 0.0 W/m2
02:11 66.4 °F 58.6 °F 29.86 in West 5.8 mph 5.8 mph 76% 0.00 in 0.0 W/m2
02:16 66.2 °F 58.4 °F 29.85 in WSW 11.0 mph 11.0 mph 76% 0.00 in 0.0 W/m2
02:21 66.1 °F 58.7 °F 29.85 in West 10.4 mph 10.4 mph 77% 0.00 in 0.0 W/m2
02:26 65.9 °F 58.5 °F 29.85 in WSW 9.2 mph 9.2 mph 77% 0.00 in 0.0 W/m2
02:31 65.7 °F 58.7 °F 29.85 in West 3.5 mph 3.5 mph 78% 0.00 in 0.0 W/m2
02:36 65.5 °F 58.5 °F 29.85 in West 11.5 mph 11.5 mph 78% 0.00 in 0.0 W/m2
02:41 65.4 °F 58.4 °F 29.85 in WSW 10.4 mph 10.4 mph 78% 0.00 in 0.0 W/m2
02:46 65.2 °F 58.5 °F 29.85 in WSW 11.5 mph 11.5 mph 79% 0.00 in 0.0 W/m2
02:51 65.1 °F 58.4 °F 29.84 in WSW 5.0 mph 5.0 mph 79% 0.00 in 0.0 W/m2
02:56 64.9 °F 58.2 °F 29.84 in West 11.5 mph 11.5 mph 79% 0.00 in 0.0 W/m2
03:01 64.8 °F 58.5 °F 29.84 in West 18.4 mph 18.4 mph 80% 0.00 in 0.0 W/m2
03:06 64.8 °F 58.5 °F 29.84 in WSW 11.5 mph 11.5 mph 80% 0.00 in 0.0 W/m2
03:11 64.7 °F 58.4 °F 29.84 in WSW 11.5 mph 11.5 mph 80% 0.00 in 0.0 W/m2
03:16 64.6 °F 58.3 °F 29.84 in SW 11.5 mph 11.5 mph 80% 0.00 in 0.0 W/m2
03:21 64.5 °F 58.2 °F 29.84 in WNW 6.9 mph 6.9 mph 80% 0.00 in 0.0 W/m2
03:26 64.3 °F 58.3 °F 29.84 in WSW 6.9 mph 6.9 mph 81% 0.00 in 0.0 W/m2
03:31 64.2 °F 58.2 °F 29.84 in WSW 12.0 mph 12.0 mph 81% 0.00 in 0.0 W/m2
03:36 64.1 °F 58.1 °F 29.84 in West 9.2 mph 9.2 mph 81% 0.00 in 0.0 W/m2
03:41 64.0 °F 58.4 °F 29.84 in West 10.4 mph 10.4 mph 82% 0.00 in 0.0 W/m2
03:46 63.9 °F 58.3 °F 29.84 in WSW 5.8 mph 5.8 mph 82% 0.00 in 0.0 W/m2
03:51 63.7 °F 58.1 °F 29.84 in West 6.9 mph 6.9 mph 82% 0.00 in 0.0 W/m2
03:56 63.6 °F 58.0 °F 29.84 in NW 9.2 mph 9.2 mph 82% 0.00 in 0.0 W/m2
04:01 63.4 °F 58.1 °F 29.84 in West 4.6 mph 4.6 mph 83% 0.00 in 0.0 W/m2
04:06 63.3 °F 58.0 °F 29.84 in WSW 5.8 mph 5.8 mph 83% 0.00 in 0.0 W/m2
04:11 63.2 °F 57.9 °F 29.84 in West 6.9 mph 6.9 mph 83% 0.00 in 0.0 W/m2
04:16 63.1 °F 58.2 °F 29.84 in SW 10.4 mph 10.4 mph 84% 0.00 in 0.0 W/m2
04:21 62.9 °F 58.0 °F 29.84 in WSW 5.8 mph 5.8 mph 84% 0.00 in 0.0 W/m2
04:26 62.9 °F 58.3 °F 29.84 in WSW 6.9 mph 6.9 mph 85% 0.00 in 0.0 W/m2
04:31 63.0 °F 58.4 °F 29.85 in SW 12.0 mph 12.0 mph 85% 0.00 in 0.0 W/m2
04:36 63.1 °F 58.5 °F 29.84 in West 12.7 mph 12.7 mph 85% 0.00 in 0.0 W/m2
04:41 63.1 °F 58.5 °F 29.84 in West 7.0 mph 7.0 mph 85% 0.00 in 0.0 W/m2
04:46 63.2 °F 58.6 °F 29.84 in West 8.1 mph 8.1 mph 85% 0.00 in 0.0 W/m2
04:51 63.1 °F 58.5 °F 29.84 in WSW 10.4 mph 10.4 mph 85% 0.00 in 0.0 W/m2
04:56 63.1 °F 58.5 °F 29.85 in WSW 8.1 mph 8.1 mph 85% 0.00 in 0.0 W/m2
05:01 63.1 °F 58.5 °F 29.85 in West 9.2 mph 9.2 mph 85% 0.00 in 0.0 W/m2
05:06 63.1 °F 58.5 °F 29.85 in WSW 10.4 mph 10.4 mph 85% 0.00 in 0.0 W/m2
05:11 63.1 °F 58.5 °F 29.85 in WSW 5.8 mph 5.8 mph 85% 0.00 in 0.0 W/m2
05:16 63.0 °F 58.4 °F 29.85 in WNW 9.2 mph 9.2 mph 85% 0.00 in 0.0 W/m2
05:21 62.8 °F 58.2 °F 29.85 in West 9.2 mph 9.2 mph 85% 0.00 in 0.0 W/m2
05:26 62.7 °F 58.1 °F 29.85 in West 9.2 mph 9.2 mph 85% 0.00 in 0.0 W/m2
05:31 62.5 °F 57.6 °F 29.85 in WNW 5.8 mph 5.8 mph 84% 0.00 in 0.0 W/m2
05:36 62.3 °F 57.4 °F 29.85 in WNW 5.8 mph 5.8 mph 84% 0.00 in 0.0 W/m2
05:41 62.2 °F 56.6 °F 29.85 in West 9.0 mph 9.0 mph 82% 0.00 in 0.0 W/m2
05:46 62.1 °F 56.5 °F 29.85 in WSW 6.0 mph 6.0 mph 82% 0.00 in 0.0 W/m2
05:51 61.9 °F 56.0 °F 29.85 in West 4.6 mph 4.6 mph 81% 0.00 in 0.0 W/m2
05:55 61.8 °F 55.9 °F 29.85 in WNW 4.6 mph 4.6 mph 81% 0.00 in 0.0 W/m2
06:00 61.6 °F 55.4 °F 29.85 in NNW 4.6 mph 4.6 mph 80% 0.00 in 0.0 W/m2
06:05 61.5 °F 54.9 °F 29.85 in WSW 6.9 mph 6.9 mph 79% 0.00 in 0.0 W/m2
06:10 61.3 °F 54.7 °F 29.85 in WNW 2.3 mph 2.3 mph 79% 0.00 in 0.0 W/m2
06:15 61.1 °F 54.2 °F 29.85 in West 3.5 mph 3.5 mph 78% 0.00 in 0.0 W/m2
06:20 60.9 °F 54.0 °F 29.85 in WSW 3.5 mph 3.5 mph 78% 0.00 in 0.0 W/m2
06:25 60.7 °F 53.4 °F 29.86 in WNW 3.5 mph 3.5 mph 77% 0.00 in 0.0 W/m2
06:30 60.7 °F 52.7 °F 29.86 in NW 5.8 mph 5.8 mph 75% 0.00 in 0.0 W/m2
06:35 60.9 °F 52.2 °F 29.86 in West 11.5 mph 11.5 mph 73% 0.00 in 0.0 W/m2
06:40 60.8 °F 51.3 °F 29.87 in West 5.8 mph 5.8 mph 71% 0.00 in 0.0 W/m2
06:45 60.8 °F 51.0 °F 29.87 in SW 12.7 mph 12.7 mph 70% 0.00 in 0.0 W/m2
06:50 60.7 °F 50.5 °F 29.88 in WSW 12.7 mph 12.7 mph 69% 0.00 in 0.0 W/m2
06:55 60.2 °F 50.4 °F 29.88 in NW 4.0 mph 4.0 mph 70% 0.00 in 0.0 W/m2
07:00 59.7 °F 50.3 °F 29.89 in WNW 10.0 mph 10.0 mph 71% 0.00 in 5.0 W/m2
07:05 59.0 °F 50.0 °F 29.89 in NNW 9.2 mph 9.2 mph 72% 0.00 in 7.0 W/m2
07:10 58.1 °F 49.1 °F 29.89 in NW 18.4 mph 18.4 mph 72% 0.00 in 11.0 W/m2
07:15 57.4 °F 48.8 °F 29.90 in NW 5.8 mph 5.8 mph 73% 0.00 in 16.0 W/m2
07:20 57.0 °F 48.8 °F 29.91 in NNW 11.5 mph 11.5 mph 74% 0.00 in 19.0 W/m2
07:25 56.6 °F 48.4 °F 29.91 in North 6.9 mph 6.9 mph 74% 0.00 in 26.0 W/m2
07:30 56.2 °F 48.0 °F 29.91 in NNW 11.5 mph 11.5 mph 74% 0.00 in 33.0 W/m2
07:35 55.9 °F 47.7 °F 29.92 in NW 11.5 mph 11.5 mph 74% 0.00 in 40.0 W/m2
07:40 55.7 °F 47.5 °F 29.92 in West 4.6 mph 4.6 mph 74% 0.00 in 51.0 W/m2
07:45 55.5 °F 47.0 °F 29.92 in West 10.4 mph 10.4 mph 73% 0.00 in 65.0 W/m2
07:50 55.3 °F 46.8 °F 29.93 in North 5.8 mph 5.8 mph 73% 0.00 in 79.0 W/m2
07:55 55.2 °F 46.3 °F 29.93 in NNE 11.5 mph 11.5 mph 72% 0.00 in 97.0 W/m2
08:00 55.0 °F 46.1 °F 29.93 in NNE 11.5 mph 11.5 mph 72% 0.00 in 114.0 W/m2
08:05 54.8 °F 45.9 °F 29.94 in NNW 13.8 mph 13.8 mph 72% 0.00 in 130.0 W/m2
08:10 54.6 °F 45.4 °F 29.94 in WNW 11.5 mph 11.5 mph 71% 0.00 in 149.0 W/m2
08:15 54.6 °F 45.0 °F 29.94 in NNW 10.4 mph 10.4 mph 70% 0.00 in 171.0 W/m2
08:20 54.5 °F 44.5 °F 29.94 in NNW 11.5 mph 11.5 mph 69% 0.00 in 192.0 W/m2
08:25 54.2 °F 43.5 °F 29.95 in NW 12.7 mph 12.7 mph 67% 0.00 in 213.0 W/m2
08:30 53.9 °F 42.4 °F 29.95 in NNE 16.1 mph 16.1 mph 65% 0.00 in 234.0 W/m2
08:35 54.0 °F 42.5 °F 29.95 in SW 12.7 mph 12.7 mph 65% 0.00 in 248.0 W/m2
08:40 54.1 °F 42.6 °F 29.95 in NNW 15.0 mph 15.0 mph 65% 0.00 in 267.0 W/m2
08:45 53.8 °F 41.9 °F 29.96 in NNW 16.1 mph 16.1 mph 64% 0.00 in 283.0 W/m2
08:50 53.7 °F 42.2 °F 29.96 in WNW 13.8 mph 13.8 mph 65% 0.00 in 302.0 W/m2
08:55 53.7 °F 42.2 °F 29.96 in North 11.5 mph 11.5 mph 65% 0.00 in 320.0 W/m2
09:00 53.9 °F 42.4 °F 29.96 in NNW 10.4 mph 10.4 mph 65% 0.00 in 339.0 W/m2
09:05 54.2 °F 42.3 °F 29.96 in North 15.0 mph 15.0 mph 64% 0.00 in 355.0 W/m2
09:10 54.1 °F 42.2 °F 29.96 in NW 13.8 mph 13.8 mph 64% 0.00 in 371.0 W/m2
09:15 54.2 °F 42.3 °F 29.96 in NNW 17.3 mph 17.3 mph 64% 0.00 in 390.0 W/m2
09:20 54.6 °F 42.7 °F 29.97 in North 5.8 mph 5.8 mph 64% 0.00 in 410.0 W/m2
09:25 55.0 °F 43.0 °F 29.96 in NNW 11.5 mph 11.5 mph 64% 0.00 in 422.0 W/m2
09:30 55.6 °F 43.2 °F 29.97 in NNW 9.2 mph 9.2 mph 63% 0.00 in 445.0 W/m2
09:35 55.4 °F 42.6 °F 29.97 in WSW 11.5 mph 11.5 mph 62% 0.00 in 455.0 W/m2
09:40 55.5 °F 42.3 °F 29.97 in WNW 13.8 mph 13.8 mph 61% 0.00 in 473.0 W/m2
09:45 55.5 °F 42.7 °F 29.97 in NW 10.4 mph 10.4 mph 62% 0.00 in 494.0 W/m2
09:50 56.2 °F 43.3 °F 29.97 in WSW 16.1 mph 16.1 mph 62% 0.00 in 508.0 W/m2
09:55 56.2 °F 42.5 °F 29.98 in NNW 11.5 mph 11.5 mph 60% 0.00 in 524.0 W/m2
10:00 55.6 °F 42.4 °F 29.98 in WNW 11.5 mph 11.5 mph 61% 0.00 in 541.0 W/m2
10:05 55.7 °F 42.5 °F 29.98 in NW 15.0 mph 15.0 mph 61% 0.00 in 557.0 W/m2
10:10 56.0 °F 42.3 °F 29.98 in West 11.5 mph 11.5 mph 60% 0.00 in 568.0 W/m2
10:15 55.9 °F 42.6 °F 29.98 in NNW 4.6 mph 4.6 mph 61% 0.00 in 578.0 W/m2
10:20 56.3 °F 43.0 °F 29.99 in NW 10.4 mph 10.4 mph 61% 0.00 in 601.0 W/m2
10:25 56.0 °F 42.3 °F 29.99 in SW 11.5 mph 11.5 mph 60% 0.00 in 613.0 W/m2
10:30 55.9 °F 42.2 °F 29.99 in NNW 11.5 mph 11.5 mph 60% 0.00 in 631.0 W/m2
10:35 56.1 °F 42.4 °F 30.00 in WNW 10.4 mph 10.4 mph 60% 0.00 in 638.0 W/m2
10:40 55.7 °F 42.0 °F 30.00 in NNW 11.5 mph 11.5 mph 60% 0.00 in 659.0 W/m2
10:45 55.6 °F 42.4 °F 30.01 in NW 6.0 mph 6.0 mph 61% 0.00 in 673.0 W/m2
10:50 55.7 °F 42.0 °F 30.01 in NW 13.8 mph 13.8 mph 60% 0.00 in 686.0 W/m2
10:55 55.5 °F 41.4 °F 30.01 in NW 9.2 mph 9.2 mph 59% 0.00 in 694.0 W/m2
11:00 55.9 °F 42.2 °F 30.02 in WNW 13.0 mph 13.0 mph 60% 0.00 in 712.0 W/m2
11:05 55.4 °F 41.7 °F 30.02 in WNW 10.4 mph 10.4 mph 60% 0.00 in 717.0 W/m2
11:10 55.9 °F 41.8 °F 30.02 in NW 13.8 mph 13.8 mph 59% 0.00 in 733.0 W/m2
11:15 55.5 °F 41.8 °F 30.02 in NW 10.4 mph 10.4 mph 60% 0.00 in 726.0 W/m2
11:20 56.2 °F 42.1 °F 30.02 in NW 15.0 mph 15.0 mph 59% 0.00 in 765.0 W/m2
11:25 57.2 °F 42.1 °F 30.02 in West 11.5 mph 11.5 mph 57% 0.00 in 759.0 W/m2
11:30 57.5 °F 41.9 °F 30.03 in NNW 6.0 mph 6.0 mph 56% 0.00 in 786.0 W/m2
11:35 56.5 °F 41.0 °F 30.03 in WNW 11.5 mph 11.5 mph 56% 0.00 in 793.0 W/m2
11:40 56.4 °F 41.8 °F 30.03 in NNW 11.0 mph 11.0 mph 58% 0.00 in 805.0 W/m2
11:45 56.7 °F 41.2 °F 30.04 in NW 12.7 mph 12.7 mph 56% 0.00 in 816.0 W/m2
Soleil - Laurel Canyon
Compliments of Weather Underground - 2.25 mb